Time;durP1;ratioP1;P1;durP2;ratioP2;P2;SDS_P1;SDS_P2;PMS_P1;PMS_P2;Temp;Humidity;BMP_temperature;BMP_pressure;BME280_temperature;BME280_humidity;BME280_pressure;Samples;Min_cycle;Max_cycle;Signal;HPM_P1;HPM_P2
2022/08/18 00:01:15;;;;;;;3.90;2.55;;;;;;;24.65;53.73;101411.63;5075697;28;20036;-85
2022/08/18 00:03:41;;;;;;;2.63;2.38;;;;;;;24.65;53.82;101414.28;5058885;28;20029;-84
2022/08/18 00:06:07;;;;;;;4.65;2.45;;;;;;;24.64;53.59;101413.38;5075583;28;20047;-85
2022/08/18 00:08:32;;;;;;;3.00;2.47;;;;;;;24.65;53.73;101414.28;5059076;28;20388;-85
2022/08/18 00:10:58;;;;;;;3.53;2.50;;;;;;;24.65;53.90;101406.38;5058666;28;20043;-85
2022/08/18 00:13:24;;;;;;;2.75;2.50;;;;;;;24.64;53.67;101413.38;5059375;28;20090;-85
2022/08/18 00:15:52;;;;;;;3.33;2.47;;;;;;;24.66;53.81;101421.25;5059030;28;20025;-84
2022/08/18 00:18:18;;;;;;;2.95;2.30;;;;;;;24.67;53.71;101422.94;5059717;28;20047;-84
2022/08/18 00:20:44;;;;;;;2.63;2.40;;;;;;;24.67;53.76;101422.94;5059644;28;20029;-85
2022/08/18 00:23:09;;;;;;;4.07;2.70;;;;;;;24.66;53.78;101418.59;5058794;28;20111;-85
2022/08/18 00:25:34;;;;;;;3.00;2.20;;;;;;;24.67;53.26;101422.94;5059303;28;20028;-84
2022/08/18 00:28:04;;;;;;;3.28;2.13;;;;;;;24.68;53.38;101426.47;5076090;28;20024;-85
2022/08/18 00:30:30;;;;;;;3.15;2.40;;;;;;;24.67;53.45;101428.22;5077825;28;20024;-85
2022/08/18 00:33:01;;;;;;;2.58;1.95;;;;;;;24.68;53.68;101426.47;5076914;28;20476;-85
2022/08/18 00:35:30;;;;;;;2.95;2.33;;;;;;;24.69;53.34;101430.81;5077041;28;20036;-84
2022/08/18 00:37:58;;;;;;;2.83;2.20;;;;;;;24.70;53.48;101429.91;5077803;28;20042;-84
2022/08/18 00:40:29;;;;;;;2.47;2.10;;;;;;;24.68;53.44;101427.31;5080089;28;20020;-83
2022/08/18 00:42:57;;;;;;;2.83;2.15;;;;;;;24.69;53.76;101417.66;5084662;28;20029;-84
2022/08/18 00:45:31;;;;;;;3.00;2.53;;;;;;;24.68;53.18;101411.53;5084265;28;20024;-82
2022/08/18 00:47:58;;;;;;;3.30;2.47;;;;;;;24.69;53.61;101410.59;5081870;28;20120;-82
2022/08/18 00:50:37;;;;;;;2.75;2.20;;;;;;;24.69;53.32;101418.50;5080126;28;20020;-81
2022/08/18 00:53:10;;;;;;;2.97;2.40;;;;;;;24.70;53.43;101419.38;5081276;28;20028;-82
2022/08/18 00:55:38;;;;;;;2.67;2.30;;;;;;;24.70;53.22;101414.13;5080617;28;20040;-82
2022/08/18 00:58:09;;;;;;;3.22;2.30;;;;;;;24.70;53.30;101406.22;5080116;28;20468;-82
2022/08/18 01:00:36;;;;;;;2.53;2.30;;;;;;;24.70;53.36;101387.81;5080998;28;20024;-81
2022/08/18 01:03:07;;;;;;;3.55;2.05;;;;;;;24.70;53.17;101382.53;5078332;28;20021;-81
2022/08/18 01:05:39;;;;;;;2.55;2.10;;;;;;;24.70;53.31;101393.06;5079843;28;20084;-81
2022/08/18 01:08:10;;;;;;;3.13;2.17;;;;;;;24.70;53.10;101395.72;5086494;28;20022;-82
2022/08/18 01:10:37;;;;;;;2.72;2.25;;;;;;;24.71;53.24;101400.91;5093977;28;20035;-81
2022/08/18 01:13:03;;;;;;;2.70;2.20;;;;;;;24.71;53.22;101389.53;5051930;28;20056;-82
2022/08/18 01:15:28;;;;;;;3.97;2.45;;;;;;;24.70;53.02;101382.53;5082132;28;20020;-82
2022/08/18 01:24:02;;;;;;;2.50;1.90;;;;;;;24.69;53.37;101384.28;5079153;28;20110;-81
2022/08/18 01:26:30;;;;;;;4.72;2.13;;;;;;;24.68;53.37;101372.06;5085461;28;20073;-82
2022/08/18 01:29:04;;;;;;;3.72;1.92;;;;;;;24.71;53.44;101384.25;5095909;28;20008;-82
2022/08/18 01:31:37;;;;;;;4.93;2.10;;;;;;;24.70;53.21;101393.94;5094085;28;20020;-81
2022/08/18 01:34:05;;;;;;;;;;;;;;;24.70;53.17;101403.59;5096616;28;20017;-82
2022/08/18 01:36:36;;;;;;;3.03;2.20;;;;;;;24.70;53.36;101407.09;5094495;28;19916;-81
2022/08/18 01:39:04;;;;;;;2.40;2.20;;;;;;;24.71;53.13;101406.16;5087052;28;20017;-81
2022/08/18 01:41:29;;;;;;;3.10;2.38;;;;;;;24.69;53.17;101400.09;5086283;28;20139;-81
2022/08/18 01:43:57;;;;;;;2.97;2.20;;;;;;;24.70;52.89;101408.88;5068961;28;20483;-82
2022/08/18 01:46:23;;;;;;;3.17;2.10;;;;;;;24.70;53.23;101409.72;5085551;28;20035;-81
2022/08/18 01:48:49;;;;;;;2.70;1.98;;;;;;;24.69;53.02;101407.13;5087790;28;20021;-82
2022/08/18 01:51:18;;;;;;;2.90;2.40;;;;;;;24.69;53.00;101405.34;5096859;28;20024;-81
2022/08/18 01:53:45;;;;;;;2.75;2.03;;;;;;;24.68;53.23;101398.38;5098229;28;20020;-82
2022/08/18 01:56:11;;;;;;;4.15;2.50;;;;;;;24.68;52.92;101394.88;5073903;28;20033;-82
2022/08/18 01:58:37;;;;;;;4.78;2.28;;;;;;;24.68;53.17;101379.09;5071231;28;20028;-81
2022/08/18 02:01:03;;;;;;;3.45;2.30;;;;;;;24.69;52.90;101378.19;5087428;28;20035;-81
2022/08/18 02:03:39;;;;;;;2.90;2.15;;;;;;;24.69;53.17;101386.06;5086035;28;20031;-81
2022/08/18 02:06:09;;;;;;;2.45;2.10;;;;;;;24.69;53.12;101383.44;5085237;28;20480;-80
2022/08/18 02:08:36;;;;;;;2.53;2.10;;;;;;;24.69;52.80;101372.91;5083854;28;20127;-80
2022/08/18 02:11:02;;;;;;;3.88;2.20;;;;;;;24.68;53.02;101377.31;5064502;28;20124;-80
2022/08/18 02:13:28;;;;;;;4.05;2.05;;;;;;;24.68;52.97;101373.84;5051731;28;20394;-82
2022/08/18 02:15:56;;;;;;;3.83;2.28;;;;;;;24.69;52.98;101375.53;5085013;28;20016;-81
2022/08/18 02:18:26;;;;;;;3.28;2.45;;;;;;;24.69;53.11;101381.66;5085188;28;20089;-81
2022/08/18 02:20:52;;;;;;;2.30;2.10;;;;;;;24.68;52.90;101390.47;5086474;28;20044;-81
2022/08/18 02:23:18;;;;;;;3.22;2.25;;;;;;;24.69;53.45;101397.44;5084597;28;20066;-81
2022/08/18 02:25:43;;;;;;;4.95;2.35;;;;;;;24.69;52.84;101400.09;5067317;28;20025;-81
2022/08/18 02:28:09;;;;;;;3.38;2.15;;;;;;;24.69;52.76;101405.34;5083526;28;20036;-81
2022/08/18 02:30:38;;;;;;;2.45;2.10;;;;;;;24.69;52.80;101410.59;5086034;28;20027;-81
2022/08/18 02:33:05;;;;;;;2.13;1.92;;;;;;;24.69;52.74;101413.25;5084470;28;20028;-82
2022/08/18 02:35:31;;;;;;;3.08;2.15;;;;;;;24.69;53.12;101412.38;5067254;28;20024;-82
2022/08/18 02:38:01;;;;;;;3.33;2.22;;;;;;;24.68;52.82;101408.91;5067895;28;20033;-82
2022/08/18 02:40:27;;;;;;;2.47;2.15;;;;;;;24.69;52.54;101422.91;5085187;28;20068;-82
2022/08/18 02:42:53;;;;;;;2.80;2.15;;;;;;;24.68;53.02;101416.78;5090689;28;20020;-81
2022/08/18 02:45:18;;;;;;;3.05;2.20;;;;;;;24.69;52.75;101420.28;5070476;28;20029;-82
2022/08/18 02:47:44;;;;;;;2.85;1.90;;;;;;;24.69;52.69;101422.91;5069174;28;20495;-82
2022/08/18 02:50:12;;;;;;;2.70;2.00;;;;;;;24.69;53.18;101428.19;5086015;28;20476;-82
2022/08/18 02:52:37;;;;;;;2.42;2.00;;;;;;;24.69;53.00;101439.56;5085605;28;20024;-82
2022/08/18 02:55:05;;;;;;;2.70;2.20;;;;;;;24.69;52.88;101436.06;5067857;28;20070;-82
2022/08/18 02:57:31;;;;;;;3.22;2.03;;;;;;;24.70;52.81;101429.91;5084742;28;20033;-82
2022/08/18 02:59:58;;;;;;;3.30;2.35;;;;;;;24.68;52.87;101435.22;5067637;28;20094;-81
2022/08/18 03:02:24;;;;;;;2.47;2.10;;;;;;;24.69;53.13;101434.28;5085906;28;20025;-81
2022/08/18 03:04:50;;;;;;;3.38;2.25;;;;;;;24.69;53.04;101436.94;5080871;28;20025;-80
2022/08/18 03:07:16;;;;;;;2.70;2.28;;;;;;;24.70;52.81;101440.44;5062049;28;20366;-82
2022/08/18 03:09:42;;;;;;;3.45;2.00;;;;;;;24.70;52.98;101445.72;5082263;28;20107;-81
2022/08/18 03:12:08;;;;;;;2.60;2.10;;;;;;;24.70;53.00;101437.81;5079309;28;20388;-81
2022/08/18 03:14:36;;;;;;;2.53;2.10;;;;;;;24.69;52.91;101436.94;5064766;28;20035;-82
2022/08/18 03:17:04;;;;;;;3.25;2.40;;;;;;;24.70;52.86;101437.81;5081787;28;20024;-82
2022/08/18 03:19:29;;;;;;;5.47;2.30;;;;;;;24.70;53.04;101440.44;5065667;28;20050;-82
2022/08/18 03:21:58;;;;;;;3.38;2.40;;;;;;;24.71;53.11;101442.16;5092515;28;20016;-83
2022/08/18 03:24:24;;;;;;;2.90;2.33;;;;;;;24.71;52.72;101450.06;5095220;28;20037;-82
2022/08/18 03:26:51;;;;;;;3.28;2.10;;;;;;;24.71;53.07;101443.00;5093862;28;20028;-82
2022/08/18 03:29:16;;;;;;;2.35;2.10;;;;;;;24.70;52.76;101441.31;5077947;28;20031;-83
2022/08/18 03:31:43;;;;;;;2.60;2.30;;;;;;;24.70;53.09;101441.31;5078022;28;20029;-83
2022/08/18 03:34:08;;;;;;;2.97;2.15;;;;;;;24.71;52.81;101448.28;5061509;28;20017;-82
2022/08/18 03:36:35;;;;;;;3.05;2.30;;;;;;;24.70;52.66;101449.19;5079006;28;20361;-82
2022/08/18 03:39:04;;;;;;;5.03;2.40;;;;;;;24.70;53.02;101443.94;5078595;28;20009;-82
2022/08/18 03:41:30;;;;;;;3.47;2.35;;;;;;;24.70;52.69;101443.06;5100736;28;20064;-82
2022/08/18 03:43:58;;;;;;;3.47;2.50;;;;;;;24.70;52.95;101441.31;5084241;28;20072;-83
2022/08/18 03:46:24;;;;;;;3.30;2.20;;;;;;;24.70;52.79;101441.31;5101454;28;20009;-82
2022/08/18 03:48:52;;;;;;;2.67;2.00;;;;;;;24.70;53.16;101441.31;5083282;28;20031;-83
2022/08/18 03:51:33;;;;;;;2.35;2.00;;;;;;;24.71;52.83;101447.41;5101471;28;20028;-81
2022/08/18 03:54:01;;;;;;;2.72;2.13;;;;;;;24.70;52.79;101435.19;5100040;28;20023;-82
2022/08/18 03:56:35;;;;;;;3.72;2.40;;;;;;;24.71;52.99;101435.13;5100611;28;20028;-82
2022/08/18 03:59:04;;;;;;;3.85;2.20;;;;;;;24.71;52.86;101431.63;5097043;28;20017;-82
2022/08/18 04:01:33;;;;;;;2.85;2.40;;;;;;;24.71;52.60;101434.25;5092950;28;20032;-82
2022/08/18 04:04:04;;;;;;;3.42;1.95;;;;;;;24.72;52.88;101434.22;5093506;28;20012;-81
2022/08/18 04:06:35;;;;;;;4.57;2.10;;;;;;;24.72;53.08;101433.38;5092117;28;20020;-81
2022/08/18 04:09:04;;;;;;;3.30;2.22;;;;;;;24.71;52.80;101431.63;5098622;28;20028;-80
2022/08/18 04:11:31;;;;;;;3.03;2.30;;;;;;;24.71;52.82;101432.47;5091320;28;20017;-81
2022/08/18 04:13:56;;;;;;;2.22;1.90;;;;;;;24.73;52.70;101437.72;5099242;28;20171;-81
2022/08/18 04:16:24;;;;;;;2.58;2.00;;;;;;;24.72;52.65;101434.22;5100458;28;20058;-82
2022/08/18 04:19:01;;;;;;;3.78;2.40;;;;;;;24.71;53.04;101435.13;5094445;28;20024;-82
2022/08/18 04:21:33;;;;;;;2.80;2.08;;;;;;;24.72;52.75;101441.25;5094174;28;20025;-81
2022/08/18 04:24:04;;;;;;;2.83;2.30;;;;;;;24.73;52.88;101437.72;5096593;28;20064;-81
2022/08/18 04:26:37;;;;;;;4.45;2.47;;;;;;;24.72;52.93;101444.75;5081364;28;20044;-82
2022/08/18 04:29:06;;;;;;;3.60;2.30;;;;;;;24.72;52.65;101446.53;5096841;28;20025;-81
2022/08/18 04:34:54;;;;;;;3.85;2.10;;;;;;;24.71;52.97;101437.75;5100882;28;20031;-81
2022/08/18 04:37:20;;;;;;;2.95;2.13;;;;;;;24.71;52.75;101432.47;5099309;28;20068;-81
2022/08/18 04:46:00;;;;;;;4.45;2.00;;;;;;;24.71;52.64;101424.59;5031868;28;20076;-85
2022/08/18 04:55:27;;;;;;;2.92;2.20;;;;;;;24.73;52.82;101429.81;5588620;22;20081;-84
2022/08/18 05:03:20;;;;;;;2.88;2.05;;;;;;;24.73;52.98;101430.66;5687040;23;20109;-85
2022/08/18 05:05:48;;;;;;;3.20;2.30;;;;;;;24.72;53.02;101428.97;5018101;28;20016;-86
2022/08/18 05:08:22;;;;;;;3.38;2.30;;;;;;;24.74;52.78;101429.78;5017369;28;20041;-86
2022/08/18 05:11:08;;;;;;;4.10;2.25;;;;;;;24.74;52.73;101423.66;5001932;28;20013;-85
2022/08/18 05:14:04;;;;;;;2.28;2.05;;;;;;;24.74;52.93;101421.88;5020454;28;20026;-85
2022/08/18 05:20:28;;;;;;;2.70;2.22;;;;;;;24.74;52.80;101429.78;5020358;28;20041;-86
2022/08/18 05:25:31;;;;;;;2.83;2.25;;;;;;;24.74;52.70;101423.66;5783759;23;20061;-81
2022/08/18 06:07:58;;;;;;;8.90;3.60;;;;;;;25.34;51.97;101433.16;5406097;23;20047;-81
2022/08/18 07:00:33;;;;;;;4.85;2.88;;;;;;;24.91;53.00;101467.88;5489615;23;20043;-85
2022/08/18 07:03:46;;;;;;;3.13;2.60;;;;;;;24.94;52.93;101463.38;4902439;29;20041;-84
2022/08/18 07:06:20;;;;;;;3.67;2.57;;;;;;;24.94;52.86;101466.00;4902309;29;20037;-81
2022/08/18 07:08:54;;;;;;;4.72;2.30;;;;;;;24.75;53.53;101465.69;4936924;28;20279;-85
2022/08/18 07:15:34;;;;;;;;;;;;;;;;;;;;;
2022/08/18 07:21:59;;;;;;;3.58;1.65;;;;;;;25.04;52.46;101479.75;4962169;29;20044;-86
2022/08/18 07:24:57;;;;;;;2.17;1.60;;;;;;;25.13;51.94;101479.47;4945937;28;20031;-86
2022/08/18 07:49:00;;;;;;;3.78;2.35;;;;;;;24.50;60.20;101483.09;5026624;23;20055;-85
2022/08/18 07:51:42;;;;;;;2.47;2.15;;;;;;;24.18;58.30;101483.06;4958737;28;20050;-87
2022/08/18 07:54:30;;;;;;;3.72;2.35;;;;;;;25.41;58.00;101481.25;4958461;29;20424;-83
2022/08/18 07:57:04;;;;;;;2.72;2.10;;;;;;;25.17;56.95;101483.75;4959479;28;20364;-89
2022/08/18 07:59:38;;;;;;;3.47;2.05;;;;;;;24.55;58.23;101494.38;4959065;29;20027;-90
2022/08/18 08:02:28;;;;;;;3.03;2.08;;;;;;;24.31;59.92;101491.50;4957814;29;20061;-90
2022/08/18 08:05:31;;;;;;;5.45;2.28;;;;;;;25.17;58.71;101490.75;4959089;29;20109;-87
2022/08/18 08:08:18;;;;;;;2.95;2.00;;;;;;;25.88;52.91;101501.69;4957417;29;20539;-88
2022/08/18 08:11:04;;;;;;;2.05;1.77;;;;;;;24.51;56.88;101504.13;4957477;29;20039;-89
2022/08/18 08:13:50;;;;;;;2.65;1.98;;;;;;;23.93;56.12;101505.66;4928103;29;20059;-90
2022/08/18 08:16:27;;;;;;;3.38;1.73;;;;;;;24.02;56.70;101502.81;4959741;28;20046;-89
2022/08/18 08:19:33;;;;;;;2.03;1.58;;;;;;;24.64;55.28;101512.53;4959172;28;20427;-90
2022/08/18 08:22:14;;;;;;;2.25;1.70;;;;;;;25.61;53.72;101501.72;4959448;28;20035;-90
2022/08/18 08:25:10;;;;;;;2.42;1.60;;;;;;;25.69;52.34;101504.94;4958996;29;20361;-90
2022/08/18 08:27:55;;;;;;;2.70;1.50;;;;;;;25.32;54.48;101511.38;4956495;29;20592;-90
2022/08/18 08:30:23;;;;;;;1.98;1.58;;;;;;;25.78;54.64;101506.41;4958694;28;20023;-89
2022/08/18 08:32:57;;;;;;;2.63;1.60;;;;;;;25.48;52.83;101503.00;4958824;28;20034;-88
2022/08/18 08:35:37;;;;;;;3.10;1.45;;;;;;;24.48;59.11;101513.84;4957785;29;20023;-86
2022/08/18 08:38:13;;;;;;;2.90;2.00;;;;;;;24.28;60.12;101523.16;4965972;29;20155;-86
2022/08/18 08:41:02;;;;;;;2.55;1.60;;;;;;;24.25;60.20;101514.47;4957641;29;20019;-87
2022/08/18 08:43:44;;;;;;;2.92;1.77;;;;;;;24.19;61.24;101516.38;4957296;29;20471;-90
2022/08/18 08:46:14;;;;;;;2.72;1.63;;;;;;;24.16;60.39;101512.94;4956597;29;20022;-84
2022/08/18 08:48:48;;;;;;;3.40;1.80;;;;;;;24.12;60.27;101506.03;4956776;29;20047;-86
2022/08/18 08:51:38;;;;;;;3.70;1.50;;;;;;;24.21;58.77;101505.78;4956956;29;20612;-86
2022/08/18 08:54:18;;;;;;;4.30;1.85;;;;;;;24.16;59.44;101508.53;4958886;28;20094;-88
2022/08/18 08:56:47;;;;;;;4.45;1.80;;;;;;;24.14;59.98;101507.72;4961372;28;20027;-87
2022/08/18 08:59:16;;;;;;;2.08;1.65;;;;;;;24.17;60.23;101506.78;4959731;29;20023;-86
2022/08/18 09:02:14;;;;;;;4.80;1.90;;;;;;;24.20;58.96;101506.72;4961210;28;20110;-88
2022/08/18 09:04:42;;;;;;;2.75;2.00;;;;;;;24.24;59.11;101510.97;4957493;29;20031;-88
2022/08/18 09:07:13;;;;;;;2.45;1.95;;;;;;;24.30;58.95;101505.56;4958149;29;20494;-88
2022/08/18 09:10:03;;;;;;;2.00;1.80;;;;;;;24.36;58.77;101507.16;4956681;29;20391;-87
2022/08/18 09:12:37;;;;;;;4.63;1.90;;;;;;;24.46;60.21;101502.50;4956747;29;20059;-88
2022/08/18 09:15:17;;;;;;;2.05;1.60;;;;;;;24.42;59.08;101504.34;4956171;29;20053;-88
2022/08/18 09:18:06;;;;;;;3.20;2.00;;;;;;;24.43;59.08;101503.44;4957692;29;20027;-82
2022/08/18 09:20:56;;;;;;;2.83;2.00;;;;;;;24.41;58.30;101506.13;4956561;29;20029;-87
2022/08/18 09:23:24;;;;;;;2.83;1.80;;;;;;;24.46;58.47;101505.13;4956332;29;20375;-88
2022/08/18 09:25:52;;;;;;;2.72;1.80;;;;;;;24.47;59.12;101501.59;4956108;29;20023;-87
2022/08/18 09:28:17;;;;;;;3.47;2.15;;;;;;;24.46;58.99;101511.25;4957377;28;20035;-87
2022/08/18 09:31:04;;;;;;;3.55;2.08;;;;;;;24.44;59.28;101508.66;4957294;28;20030;-88
2022/08/18 09:33:47;;;;;;;2.38;1.73;;;;;;;24.45;58.58;101504.25;4957083;28;20026;-87
2022/08/18 09:36:31;;;;;;;2.15;1.83;;;;;;;24.46;60.44;101513.03;4956829;28;20031;-87
2022/08/18 09:42:09;;;;;;;3.88;2.00;;;;;;;24.43;58.66;101522.72;4957133;29;20038;-88
2022/08/18 09:44:47;;;;;;;3.35;2.28;;;;;;;24.41;58.83;101519.28;4955630;29;20110;-88
2022/08/18 09:47:19;;;;;;;4.00;2.00;;;;;;;24.41;59.25;101508.75;4955778;28;20155;-88
2022/08/18 09:49:49;;;;;;;3.47;1.90;;;;;;;24.48;59.28;101516.47;4955709;29;20035;-86
2022/08/18 09:52:21;;;;;;;4.75;2.20;;;;;;;24.51;57.24;101514.63;4956534;28;20541;-87
2022/08/18 09:54:58;;;;;;;6.13;2.20;;;;;;;24.49;58.11;101512.97;4956507;28;20027;-87
2022/08/18 09:57:32;;;;;;;4.18;1.98;;;;;;;24.48;58.18;101501.59;4957006;28;20093;-88
2022/08/18 10:00:10;;;;;;;5.28;2.33;;;;;;;24.49;57.47;101510.34;4956771;29;20030;-87
2022/08/18 10:02:35;;;;;;;3.33;2.10;;;;;;;24.53;58.50;101515.47;4958021;28;20086;-87
2022/08/18 10:05:17;;;;;;;3.22;2.20;;;;;;;24.55;57.10;101510.16;4956003;29;20027;-87
2022/08/18 10:08:15;;;;;;;4.63;2.30;;;;;;;24.59;56.29;101502.13;4957657;28;20023;-87
2022/08/18 10:10:54;;;;;;;4.10;2.08;;;;;;;24.59;55.16;101502.13;4956975;28;20517;-88
2022/08/18 10:13:39;;;;;;;8.30;2.10;;;;;;;24.60;57.30;101503.00;4956731;29;20082;-87
2022/08/18 10:16:18;;;;;;;3.47;2.22;;;;;;;24.63;56.88;101502.94;4959491;28;20028;-87
2022/08/18 10:19:03;;;;;;;2.47;1.98;;;;;;;24.67;55.58;101501.91;4959770;29;20062;-86
2022/08/18 10:21:57;;;;;;;2.35;1.75;;;;;;;24.67;56.83;101488.75;4958874;29;20030;-87
2022/08/18 10:24:53;;;;;;;3.20;2.28;;;;;;;24.67;56.14;101487.88;4957101;28;20027;-86
2022/08/18 10:27:43;;;;;;;5.28;1.98;;;;;;;24.66;57.34;101483.56;4954414;29;20086;-87
2022/08/18 10:30:32;;;;;;;3.08;2.00;;;;;;;24.63;58.51;101488.00;4956346;28;20027;-85
2022/08/18 10:32:59;;;;;;;3.00;1.83;;;;;;;24.71;55.38;101482.47;4955186;29;20027;-88
2022/08/18 10:35:36;;;;;;;3.63;1.92;;;;;;;24.72;58.02;101493.91;4956370;28;20035;-86
2022/08/18 10:38:12;;;;;;;3.38;2.13;;;;;;;24.71;57.95;101479.84;4955442;29;20077;-86
2022/08/18 10:40:41;;;;;;;3.47;1.83;;;;;;;24.71;57.95;101498.28;4957691;28;20126;-84
2022/08/18 10:43:16;;;;;;;3.47;2.20;;;;;;;24.75;57.86;101496.44;4957058;28;20102;-87
2022/08/18 10:45:52;;;;;;;3.42;1.90;;;;;;;24.77;55.99;101505.16;4956250;28;20135;-87
2022/08/18 10:48:28;;;;;;;2.30;1.70;;;;;;;24.79;56.89;101504.19;4954745;29;20133;-87
2022/08/18 10:51:22;;;;;;;2.05;1.60;;;;;;;24.78;57.79;101505.09;4955485;28;20031;-87
2022/08/18 10:53:50;;;;;;;1.85;1.52;;;;;;;24.80;57.16;101512.94;4954971;29;20034;-87
2022/08/18 10:56:30;;;;;;;3.40;1.70;;;;;;;24.77;56.60;101511.25;4957350;29;20034;-86
2022/08/18 10:59:24;;;;;;;3.88;2.15;;;;;;;24.75;57.18;101489.38;4956471;28;20907;-88
2022/08/18 11:02:27;;;;;;;2.92;1.88;;;;;;;24.78;56.61;101491.94;4938229;29;20082;-87
2022/08/18 11:04:54;;;;;;;2.90;2.00;;;;;;;24.81;56.11;101499.75;4955831;29;20023;-87
2022/08/18 11:07:23;;;;;;;4.65;1.92;;;;;;;24.80;56.55;101498.03;4955730;28;20043;-87
2022/08/18 11:09:51;;;;;;;2.50;2.03;;;;;;;24.82;55.73;101496.22;4954601;29;20073;-88
2022/08/18 11:12:44;;;;;;;2.83;1.80;;;;;;;24.84;56.22;101501.41;4954611;29;20027;-86
2022/08/18 11:15:27;;;;;;;3.25;1.80;;;;;;;24.84;56.53;101510.16;4955567;28;20027;-86
2022/08/18 11:18:31;;;;;;;2.90;1.83;;;;;;;24.86;55.98;101498.75;4954187;29;20086;-86
2022/08/18 11:21:35;;;;;;;3.17;2.00;;;;;;;24.87;55.08;101500.47;4955928;28;20074;-87
2022/08/18 11:24:03;;;;;;;;;;;;;;;24.91;53.63;101500.34;4935948;29;20492;-86
2022/08/18 11:26:36;;;;;;;4.93;2.10;;;;;;;24.93;53.20;101500.28;4934754;29;19921;-86
2022/08/18 11:29:20;;;;;;;;;;;;;;;24.92;52.51;101495.94;4946092;29;20038;-87
2022/08/18 11:31:46;;;;;;;;;;;;;;;24.94;54.08;101488.84;4956035;28;19917;-86
2022/08/18 11:34:16;;;;;;;3.78;2.22;;;;;;;24.96;52.83;101493.16;4955469;28;19914;-87
2022/08/18 11:36:41;;;;;;;2.95;1.85;;;;;;;24.97;53.62;101486.13;4955219;28;20114;-87
2022/08/18 11:39:18;;;;;;;4.80;2.05;;;;;;;24.99;52.33;101482.53;4954199;29;20059;-86
2022/08/18 11:41:48;;;;;;;2.42;1.63;;;;;;;25.03;51.95;101475.41;4955312;28;20038;-87
2022/08/18 11:44:19;;;;;;;3.25;1.85;;;;;;;25.03;53.85;101475.41;4955274;28;20034;-87
2022/08/18 11:46:44;;;;;;;3.17;1.88;;;;;;;25.04;54.67;101466.59;4955346;28;20499;-87
2022/08/18 11:49:24;;;;;;;4.72;2.10;;;;;;;25.04;53.01;101475.38;4970247;28;20079;-87
2022/08/18 11:51:59;;;;;;;3.35;1.73;;;;;;;25.05;54.31;101470.97;4955399;28;20063;-87
2022/08/18 11:54:37;;;;;;;4.03;2.10;;;;;;;25.06;53.06;101470.03;4954049;29;20031;-86
2022/08/18 11:57:30;;;;;;;5.20;2.00;;;;;;;25.09;51.14;101471.72;4954125;29;20031;-86
2022/08/18 11:59:56;;;;;;;3.35;1.60;;;;;;;25.07;52.84;101466.50;4954725;28;20360;-85
2022/08/18 12:02:24;;;;;;;2.47;1.58;;;;;;;25.08;54.86;101467.34;4974140;28;20031;-86
2022/08/18 12:04:52;;;;;;;2.90;1.55;;;;;;;25.07;54.54;101466.50;4960635;29;20034;-85
2022/08/18 12:07:30;;;;;;;3.60;1.95;;;;;;;25.11;51.75;101457.59;4961433;28;20024;-86
2022/08/18 12:10:21;;;;;;;2.70;1.85;;;;;;;25.12;53.07;101455.81;4959632;29;20034;-86
2022/08/18 12:12:51;;;;;;;3.83;2.00;;;;;;;25.17;52.98;101454.78;4959779;28;20023;-86
2022/08/18 12:15:16;;;;;;;4.30;2.00;;;;;;;25.20;53.38;101456.47;4958498;28;20484;-87
2022/08/18 12:17:44;;;;;;;3.58;1.95;;;;;;;25.19;54.01;101452.97;4957158;28;20062;-87
2022/08/18 12:20:10;;;;;;;4.13;1.80;;;;;;;25.19;53.73;101446.81;4941172;29;20039;-86
2022/08/18 12:22:39;;;;;;;6.47;1.92;;;;;;;25.20;53.16;101449.44;4958292;28;20428;-86
2022/08/18 12:25:08;;;;;;;3.95;1.88;;;;;;;25.24;51.50;101445.78;4957075;29;20016;-85
2022/08/18 12:27:34;;;;;;;3.75;1.90;;;;;;;25.24;53.96;101442.31;4940771;29;20031;-85
2022/08/18 12:30:00;;;;;;;2.78;1.90;;;;;;;25.23;53.44;101444.06;4958172;28;20038;-85
2022/08/18 12:32:28;;;;;;;3.20;1.75;;;;;;;25.22;52.70;101433.59;4958125;28;20086;-85
2022/08/18 12:34:55;;;;;;;4.32;1.90;;;;;;;25.24;52.96;101423.88;4958062;28;20027;-85
2022/08/18 12:37:23;;;;;;;4.32;1.95;;;;;;;25.23;52.48;101430.03;4956740;29;20090;-84
2022/08/18 12:39:49;;;;;;;3.40;1.90;;;;;;;25.23;52.75;101433.53;4958167;28;20098;-85
2022/08/18 12:42:15;;;;;;;6.38;2.10;;;;;;;25.24;51.88;101440.53;4973320;28;20200;-85
2022/08/18 12:44:41;;;;;;;4.35;2.10;;;;;;;25.24;51.39;101439.66;4957567;29;20108;-83
2022/08/18 12:47:11;;;;;;;3.15;1.98;;;;;;;25.24;52.83;101431.78;4957251;29;20155;-84
2022/08/18 12:49:37;;;;;;;4.93;2.15;;;;;;;25.24;51.79;101432.63;4957003;29;20023;-85
2022/08/18 12:52:03;;;;;;;3.72;2.00;;;;;;;25.25;52.19;101433.47;4956995;29;20027;-85
2022/08/18 12:54:31;;;;;;;2.88;1.90;;;;;;;25.25;51.37;101436.09;4956630;29;20031;-85
2022/08/18 12:56:57;;;;;;;3.08;1.83;;;;;;;25.29;51.31;101439.53;4956605;29;20078;-84
2022/08/18 12:59:23;;;;;;;3.20;1.70;;;;;;;25.29;52.47;101431.63;4957557;28;20106;-85
2022/08/18 13:01:49;;;;;;;3.85;2.10;;;;;;;25.28;51.20;101433.38;4956172;29;20383;-85
2022/08/18 13:04:15;;;;;;;3.70;1.95;;;;;;;25.27;52.22;101426.38;4940273;29;20027;-84
2022/08/18 13:06:46;;;;;;;4.25;1.95;;;;;;;25.28;51.59;101429.88;4956415;29;20047;-85
2022/08/18 13:09:12;;;;;;;3.03;2.00;;;;;;;25.27;51.08;101423.75;4956320;29;20062;-85
2022/08/18 13:11:37;;;;;;;3.65;1.67;;;;;;;25.29;51.16;101432.47;4955813;28;20440;-85
2022/08/18 13:14:03;;;;;;;2.72;1.75;;;;;;;25.29;51.22;101428.97;4955323;29;20035;-85
2022/08/18 13:16:31;;;;;;;3.13;2.00;;;;;;;25.30;51.24;101433.31;4957037;28;20031;-84
2022/08/18 13:18:56;;;;;;;3.05;1.90;;;;;;;25.31;51.12;101432.44;4957325;28;20046;-85
2022/08/18 13:21:21;;;;;;;3.15;2.05;;;;;;;25.31;50.91;101438.56;4956202;29;20031;-85
2022/08/18 13:23:47;;;;;;;3.85;2.17;;;;;;;25.32;51.02;101442.03;4956299;29;20035;-85
2022/08/18 13:26:23;;;;;;;5.25;2.10;;;;;;;25.29;51.29;101442.16;4973046;28;20051;-81
2022/08/18 13:28:49;;;;;;;4.15;2.05;;;;;;;25.28;51.02;101443.06;4957064;28;20031;-85
2022/08/18 13:31:14;;;;;;;5.45;2.00;;;;;;;25.28;51.25;101440.41;4957120;29;20386;-85
2022/08/18 13:33:40;;;;;;;4.05;2.00;;;;;;;25.28;51.64;101446.53;4939585;29;20035;-84
2022/08/18 13:36:06;;;;;;;6.93;2.55;;;;;;;25.27;51.78;101444.81;4957084;28;20019;-86
2022/08/18 13:38:31;;;;;;;4.15;2.17;;;;;;;25.25;52.22;101447.50;4956766;28;20031;-84
2022/08/18 13:40:59;;;;;;;3.70;2.00;;;;;;;25.25;52.10;101444.88;4956883;29;20118;-86
2022/08/18 13:43:39;;;;;;;4.55;2.03;;;;;;;25.25;52.17;101449.28;4956929;28;20031;-85
2022/08/18 13:46:06;;;;;;;4.93;2.13;;;;;;;25.22;52.33;101447.63;4955891;29;20027;-85
2022/08/18 13:48:32;;;;;;;5.47;2.28;;;;;;;25.21;52.42;101456.41;4956711;28;20063;-85
2022/08/18 13:50:58;;;;;;;6.30;2.38;;;;;;;25.18;52.25;101453.84;4955739;29;20027;-85
2022/08/18 13:53:25;;;;;;;3.13;1.92;;;;;;;25.16;52.54;101458.31;4956348;28;20733;-85
2022/08/18 13:55:51;;;;;;;3.13;1.80;;;;;;;25.18;52.83;101464.38;4956494;28;20035;-85
2022/08/18 13:58:17;;;;;;;3.65;1.92;;;;;;;25.18;52.89;101464.38;4955241;29;20028;-85
2022/08/18 14:00:43;;;;;;;6.30;2.00;;;;;;;25.16;53.06;101463.56;4956712;28;20027;-84
2022/08/18 14:03:09;;;;;;;4.60;2.10;;;;;;;25.17;53.12;101474.97;4939306;29;20488;-84
2022/08/18 14:05:35;;;;;;;2.83;1.85;;;;;;;25.17;53.06;101475.84;4956578;28;20103;-84
2022/08/18 14:08:01;;;;;;;4.18;1.90;;;;;;;25.16;53.24;101478.53;4956389;29;20090;-84
2022/08/18 14:10:28;;;;;;;2.80;1.90;;;;;;;25.12;53.40;101477.75;4955406;29;20035;-85
2022/08/18 14:12:57;;;;;;;3.13;2.00;;;;;;;25.11;53.41;101478.66;4956490;28;20097;-84
2022/08/18 14:15:22;;;;;;;4.95;2.00;;;;;;;25.09;53.46;101480.50;4954937;29;20400;-85
2022/08/18 14:17:48;;;;;;;3.85;1.80;;;;;;;25.07;53.71;101484.94;4955971;28;20035;-84
2022/08/18 14:28:29;;;;;;;7.85;2.67;;;;;;;25.05;53.57;101486.75;4956216;29;20038;-84
2022/08/18 14:30:55;;;;;;;7.70;2.80;;;;;;;25.05;53.68;101481.50;4954878;29;20042;-84
2022/08/18 14:33:23;;;;;;;6.68;2.60;;;;;;;25.05;53.47;101486.75;4954822;29;20090;-85
2022/08/18 14:35:48;;;;;;;7.85;2.95;;;;;;;25.02;53.57;101484.19;4954432;29;20027;-84